sensor_id;sensor_type;location;lat;lon;timestamp;pressure;altitude;pressure_sealevel;temperature;humidity
24160;BME280;62385;41.594;23.808;2024-02-28T00:01:26;95943.09;;;5.46;73.32
24160;BME280;62385;41.594;23.808;2024-02-28T00:03:51;95945.53;;;5.38;73.99
24160;BME280;62385;41.594;23.808;2024-02-28T00:06:17;95905.28;;;4.94;75.08
24160;BME280;62385;41.594;23.808;2024-02-28T00:08:43;95940.25;;;5.38;74.34
24160;BME280;62385;41.594;23.808;2024-02-28T00:11:09;95960.22;;;5.61;73.62
24160;BME280;62385;41.594;23.808;2024-02-28T00:13:34;95959.00;;;5.44;73.84
24160;BME280;62385;41.594;23.808;2024-02-28T00:16:00;95929.00;;;5.36;73.44
24160;BME280;62385;41.594;23.808;2024-02-28T00:18:26;95928.81;;;5.28;73.95
24160;BME280;62385;41.594;23.808;2024-02-28T00:20:51;95905.31;;;5.15;73.65
24160;BME280;62385;41.594;23.808;2024-02-28T00:23:17;95914.16;;;5.14;74.17
24160;BME280;62385;41.594;23.808;2024-02-28T00:25:43;95923.44;;;5.08;73.94
24160;BME280;62385;41.594;23.808;2024-02-28T00:28:09;95911.44;;;4.84;74.39
24160;BME280;62385;41.594;23.808;2024-02-28T00:30:35;95949.69;;;5.20;74.95
24160;BME280;62385;41.594;23.808;2024-02-28T00:33:00;95906.41;;;4.92;74.31
24160;BME280;62385;41.594;23.808;2024-02-28T00:35:26;95928.19;;;5.35;72.68
24160;BME280;62385;41.594;23.808;2024-02-28T00:37:52;95933.09;;;5.08;74.49
24160;BME280;62385;41.594;23.808;2024-02-28T00:40:17;95916.59;;;5.06;74.18
24160;BME280;62385;41.594;23.808;2024-02-28T00:42:44;95949.56;;;5.21;74.67
24160;BME280;62385;41.594;23.808;2024-02-28T00:45:10;95948.06;;;5.07;74.19
24160;BME280;62385;41.594;23.808;2024-02-28T00:47:36;95949.56;;;5.21;74.73
24160;BME280;62385;41.594;23.808;2024-02-28T00:50:02;95947.63;;;5.23;73.31
24160;BME280;62385;41.594;23.808;2024-02-28T00:52:29;95935.28;;;5.03;73.93
24160;BME280;62385;41.594;23.808;2024-02-28T00:54:56;95944.31;;;5.21;74.22
24160;BME280;62385;41.594;23.808;2024-02-28T00:57:21;95957.38;;;5.11;74.22
24160;BME280;62385;41.594;23.808;2024-02-28T00:59:47;95920.94;;;4.75;74.69
24160;BME280;62385;41.594;23.808;2024-02-28T01:02:12;95938.69;;;5.35;73.48
24160;BME280;62385;41.594;23.808;2024-02-28T01:04:39;95908.75;;;4.95;74.19
24160;BME280;62385;41.594;23.808;2024-02-28T01:07:05;95932.84;;;5.11;74.11
24160;BME280;62385;41.594;23.808;2024-02-28T01:09:31;95952.44;;;5.18;73.82
24160;BME280;62385;41.594;23.808;2024-02-28T01:11:56;95966.63;;;5.47;73.84
24160;BME280;62385;41.594;23.808;2024-02-28T01:14:22;95917.44;;;5.27;73.54
24160;BME280;62385;41.594;23.808;2024-02-28T01:16:48;95969.63;;;5.75;71.77
24160;BME280;62385;41.594;23.808;2024-02-28T01:19:16;95968.69;;;5.65;72.67
24160;BME280;62385;41.594;23.808;2024-02-28T01:21:41;95961.94;;;5.72;72.29
24160;BME280;62385;41.594;23.808;2024-02-28T01:24:07;95928.31;;;5.54;72.20
24160;BME280;62385;41.594;23.808;2024-02-28T01:26:33;95957.41;;;5.74;72.00
24160;BME280;62385;41.594;23.808;2024-02-28T01:28:58;95959.19;;;5.52;71.96
24160;BME280;62385;41.594;23.808;2024-02-28T01:31:24;95971.56;;;5.20;74.50
24160;BME280;62385;41.594;23.808;2024-02-28T01:33:50;95968.41;;;4.62;75.36
24160;BME280;62385;41.594;23.808;2024-02-28T01:36:16;95962.91;;;4.65;74.46
24160;BME280;62385;41.594;23.808;2024-02-28T01:38:41;95968.97;;;4.77;74.80
24160;BME280;62385;41.594;23.808;2024-02-28T01:41:07;95975.75;;;4.91;75.16
24160;BME280;62385;41.594;23.808;2024-02-28T01:43:33;95985.88;;;4.63;75.48
24160;BME280;62385;41.594;23.808;2024-02-28T01:46:01;95973.41;;;4.65;75.73
24160;BME280;62385;41.594;23.808;2024-02-28T01:48:29;95948.59;;;4.47;75.48
24160;BME280;62385;41.594;23.808;2024-02-28T01:50:55;95980.25;;;4.57;75.70
24160;BME280;62385;41.594;23.808;2024-02-28T01:53:21;95935.72;;;4.33;75.48
24160;BME280;62385;41.594;23.808;2024-02-28T01:55:47;95975.56;;;4.60;75.76
24160;BME280;62385;41.594;23.808;2024-02-28T01:58:13;95974.94;;;4.79;75.19
24160;BME280;62385;41.594;23.808;2024-02-28T02:00:39;95979.69;;;4.20;77.34
24160;BME280;62385;41.594;23.808;2024-02-28T02:03:05;95986.59;;;4.43;77.68
24160;BME280;62385;41.594;23.808;2024-02-28T02:05:31;95984.66;;;4.56;76.63
24160;BME280;62385;41.594;23.808;2024-02-28T02:07:57;95982.53;;;4.39;77.04
24160;BME280;62385;41.594;23.808;2024-02-28T02:10:25;95964.50;;;4.46;77.16
24160;BME280;62385;41.594;23.808;2024-02-28T02:12:51;95941.16;;;4.52;75.73
24160;BME280;62385;41.594;23.808;2024-02-28T02:15:16;95948.75;;;4.12;76.35
24160;BME280;62385;41.594;23.808;2024-02-28T02:17:42;95972.50;;;4.11;78.06
24160;BME280;62385;41.594;23.808;2024-02-28T02:20:10;95935.25;;;4.17;77.21
24160;BME280;62385;41.594;23.808;2024-02-28T02:22:37;95945.59;;;4.52;75.94
24160;BME280;62385;41.594;23.808;2024-02-28T02:25:06;95978.63;;;4.77;75.83
24160;BME280;62385;41.594;23.808;2024-02-28T02:27:32;95950.22;;;4.71;75.85
24160;BME280;62385;41.594;23.808;2024-02-28T02:29:58;95960.53;;;4.94;74.54
24160;BME280;62385;41.594;23.808;2024-02-28T02:32:23;95971.91;;;4.95;74.39
24160;BME280;62385;41.594;23.808;2024-02-28T02:34:49;95983.78;;;4.78;75.07
24160;BME280;62385;41.594;23.808;2024-02-28T02:37:14;95965.34;;;4.24;75.36
24160;BME280;62385;41.594;23.808;2024-02-28T02:39:40;95981.84;;;4.26;76.37
24160;BME280;62385;41.594;23.808;2024-02-28T02:42:06;95993.28;;;4.03;77.14
24160;BME280;62385;41.594;23.808;2024-02-28T02:44:31;95999.03;;;4.41;76.61
24160;BME280;62385;41.594;23.808;2024-02-28T02:46:57;96007.16;;;4.38;76.67
24160;BME280;62385;41.594;23.808;2024-02-28T02:49:23;95955.31;;;4.07;77.07
24160;BME280;62385;41.594;23.808;2024-02-28T02:51:48;96000.59;;;4.22;77.45
24160;BME280;62385;41.594;23.808;2024-02-28T02:54:14;95984.22;;;4.29;77.06
24160;BME280;62385;41.594;23.808;2024-02-28T02:56:42;95983.88;;;4.00;77.69
24160;BME280;62385;41.594;23.808;2024-02-28T02:59:10;95996.88;;;4.35;77.49
24160;BME280;62385;41.594;23.808;2024-02-28T03:01:36;96003.22;;;4.55;77.03
24160;BME280;62385;41.594;23.808;2024-02-28T03:04:02;95967.13;;;4.24;75.59
24160;BME280;62385;41.594;23.808;2024-02-28T03:06:27;95965.59;;;4.21;76.56
24160;BME280;62385;41.594;23.808;2024-02-28T03:08:53;96005.91;;;4.64;75.63
24160;BME280;62385;41.594;23.808;2024-02-28T03:11:18;96008.13;;;4.26;77.00
24160;BME280;62385;41.594;23.808;2024-02-28T03:13:44;96008.00;;;4.05;77.56
24160;BME280;62385;41.594;23.808;2024-02-28T03:16:09;95976.47;;;4.05;77.82
24160;BME280;62385;41.594;23.808;2024-02-28T03:18:35;96014.44;;;4.46;76.85
24160;BME280;62385;41.594;23.808;2024-02-28T03:21:01;96003.25;;;4.87;75.56
24160;BME280;62385;41.594;23.808;2024-02-28T03:23:27;95969.19;;;4.20;76.24
24160;BME280;62385;41.594;23.808;2024-02-28T03:25:53;95981.59;;;4.29;76.32
24160;BME280;62385;41.594;23.808;2024-02-28T03:28:18;96003.72;;;4.81;75.35
24160;BME280;62385;41.594;23.808;2024-02-28T03:30:44;95970.38;;;4.81;74.76
24160;BME280;62385;41.594;23.808;2024-02-28T03:33:09;95972.84;;;4.94;74.08
24160;BME280;62385;41.594;23.808;2024-02-28T03:35:35;95978.47;;;5.00;74.59
24160;BME280;62385;41.594;23.808;2024-02-28T03:38:01;95968.09;;;4.88;74.40
24160;BME280;62385;41.594;23.808;2024-02-28T03:40:26;95957.81;;;4.85;74.27
24160;BME280;62385;41.594;23.808;2024-02-28T03:42:52;95986.00;;;4.94;74.53
24160;BME280;62385;41.594;23.808;2024-02-28T03:45:17;96015.63;;;5.07;74.94
24160;BME280;62385;41.594;23.808;2024-02-28T03:47:45;96015.16;;;5.13;74.45
24160;BME280;62385;41.594;23.808;2024-02-28T03:50:10;95988.78;;;4.92;75.33
24160;BME280;62385;41.594;23.808;2024-02-28T03:52:36;96021.47;;;5.10;74.90
24160;BME280;62385;41.594;23.808;2024-02-28T03:55:01;96033.34;;;5.05;75.97
24160;BME280;62385;41.594;23.808;2024-02-28T03:57:28;96024.63;;;5.04;75.36
24160;BME280;62385;41.594;23.808;2024-02-28T03:59:54;95982.88;;;4.57;75.56
24160;BME280;62385;41.594;23.808;2024-02-28T04:02:19;96032.69;;;4.47;76.44
24160;BME280;62385;41.594;23.808;2024-02-28T04:04:45;96011.84;;;4.35;76.85
24160;BME280;62385;41.594;23.808;2024-02-28T04:07:10;95995.56;;;3.96;76.80
24160;BME280;62385;41.594;23.808;2024-02-28T04:09:36;96018.84;;;4.12;77.43
24160;BME280;62385;41.594;23.808;2024-02-28T04:12:01;96031.00;;;3.91;79.26
24160;BME280;62385;41.594;23.808;2024-02-28T04:14:28;95998.41;;;3.71;78.89
24160;BME280;62385;41.594;23.808;2024-02-28T04:16:54;96025.06;;;4.11;78.73
24160;BME280;62385;41.594;23.808;2024-02-28T04:19:19;95996.78;;;3.46;80.03
24160;BME280;62385;41.594;23.808;2024-02-28T04:21:45;96021.63;;;3.64;80.87
24160;BME280;62385;41.594;23.808;2024-02-28T04:24:10;96033.41;;;3.94;79.73
24160;BME280;62385;41.594;23.808;2024-02-28T04:26:36;95985.63;;;3.78;79.56
24160;BME280;62385;41.594;23.808;2024-02-28T04:29:01;96025.28;;;4.75;77.38
24160;BME280;62385;41.594;23.808;2024-02-28T04:31:30;96032.75;;;5.01;75.86
24160;BME280;62385;41.594;23.808;2024-02-28T04:33:56;95976.25;;;4.74;75.64
24160;BME280;62385;41.594;23.808;2024-02-28T04:36:22;96015.63;;;5.07;75.58
24160;BME280;62385;41.594;23.808;2024-02-28T04:38:47;95985.88;;;4.52;76.52
24160;BME280;62385;41.594;23.808;2024-02-28T04:41:13;95977.78;;;4.11;77.33
24160;BME280;62385;41.594;23.808;2024-02-28T04:43:39;96036.53;;;4.21;78.13
24160;BME280;62385;41.594;23.808;2024-02-28T04:46:05;96034.94;;;3.85;78.89
24160;BME280;62385;41.594;23.808;2024-02-28T04:48:30;96043.19;;;3.92;79.39
24160;BME280;62385;41.594;23.808;2024-02-28T04:50:56;96043.09;;;4.15;77.95
24160;BME280;62385;41.594;23.808;2024-02-28T04:53:22;96008.06;;;3.82;77.78
24160;BME280;62385;41.594;23.808;2024-02-28T04:55:48;96040.56;;;4.03;78.66
24160;BME280;62385;41.594;23.808;2024-02-28T04:58:13;96040.38;;;4.28;77.68
24160;BME280;62385;41.594;23.808;2024-02-28T05:00:39;96045.84;;;4.47;77.19
24160;BME280;62385;41.594;23.808;2024-02-28T05:03:04;96031.41;;;4.42;77.29
24160;BME280;62385;41.594;23.808;2024-02-28T05:05:30;96025.66;;;4.37;76.34
24160;BME280;62385;41.594;23.808;2024-02-28T05:07:55;96015.63;;;4.53;76.49
24160;BME280;62385;41.594;23.808;2024-02-28T05:10:21;96023.66;;;4.29;76.50
24160;BME280;62385;41.594;23.808;2024-02-28T05:12:47;96070.25;;;4.38;77.58
24160;BME280;62385;41.594;23.808;2024-02-28T05:15:12;96061.00;;;4.10;77.13
24160;BME280;62385;41.594;23.808;2024-02-28T05:17:38;96071.75;;;4.18;77.50
24160;BME280;62385;41.594;23.808;2024-02-28T05:20:04;96057.81;;;4.18;76.71
24160;BME280;62385;41.594;23.808;2024-02-28T05:22:29;96048.50;;;4.14;76.85
24160;BME280;62385;41.594;23.808;2024-02-28T05:24:56;96065.66;;;4.07;77.60
24160;BME280;62385;41.594;23.808;2024-02-28T05:27:21;96065.84;;;4.39;77.28
24160;BME280;62385;41.594;23.808;2024-02-28T05:29:47;96055.16;;;4.74;76.23
24160;BME280;62385;41.594;23.808;2024-02-28T05:32:13;96080.84;;;4.81;76.55
24160;BME280;62385;41.594;23.808;2024-02-28T05:34:38;96078.72;;;4.75;76.23
24160;BME280;62385;41.594;23.808;2024-02-28T05:37:04;96085.75;;;4.86;76.46
24160;BME280;62385;41.594;23.808;2024-02-28T05:39:29;96074.66;;;4.71;76.29
24160;BME280;62385;41.594;23.808;2024-02-28T05:41:56;96097.25;;;4.74;76.43
24160;BME280;62385;41.594;23.808;2024-02-28T05:44:22;96096.16;;;4.32;77.37
24160;BME280;62385;41.594;23.808;2024-02-28T05:46:49;96090.56;;;4.70;76.21
24160;BME280;62385;41.594;23.808;2024-02-28T05:49:14;96078.94;;;4.28;76.20
24160;BME280;62385;41.594;23.808;2024-02-28T05:51:40;96106.34;;;4.58;75.83
24160;BME280;62385;41.594;23.808;2024-02-28T05:54:05;96055.59;;;3.90;77.91
24160;BME280;62385;41.594;23.808;2024-02-28T05:56:31;96108.25;;;4.56;77.48
24160;BME280;62385;41.594;23.808;2024-02-28T05:58:57;96089.84;;;4.56;76.92
24160;BME280;62385;41.594;23.808;2024-02-28T06:01:22;96068.25;;;5.07;75.14
24160;BME280;62385;41.594;23.808;2024-02-28T06:03:48;96081.81;;;5.45;74.72
24160;BME280;62385;41.594;23.808;2024-02-28T06:06:14;96084.91;;;5.39;75.72
24160;BME280;62385;41.594;23.808;2024-02-28T06:08:40;96101.31;;;5.75;75.70
24160;BME280;62385;41.594;23.808;2024-02-28T06:11:07;96102.22;;;5.85;75.10
24160;BME280;62385;41.594;23.808;2024-02-28T06:13:32;96106.13;;;5.70;76.18
24160;BME280;62385;41.594;23.808;2024-02-28T06:15:58;96112.09;;;5.72;76.58
24160;BME280;62385;41.594;23.808;2024-02-28T06:18:26;96115.88;;;5.90;75.29
24160;BME280;62385;41.594;23.808;2024-02-28T06:20:58;96119.31;;;6.01;75.06
24160;BME280;62385;41.594;23.808;2024-02-28T06:23:24;96106.81;;;5.72;77.12
24160;BME280;62385;41.594;23.808;2024-02-28T06:25:50;96102.59;;;5.80;75.84
24160;BME280;62385;41.594;23.808;2024-02-28T06:28:16;96114.56;;;5.95;75.77
24160;BME280;62385;41.594;23.808;2024-02-28T06:30:45;96109.22;;;6.07;75.66
24160;BME280;62385;41.594;23.808;2024-02-28T06:33:13;96128.56;;;5.96;75.47
24160;BME280;62385;41.594;23.808;2024-02-28T06:35:40;96121.56;;;6.06;75.53
24160;BME280;62385;41.594;23.808;2024-02-28T06:38:06;96117.50;;;6.23;75.00
24160;BME280;62385;41.594;23.808;2024-02-28T06:40:33;96117.84;;;6.50;74.85
24160;BME280;62385;41.594;23.808;2024-02-28T06:42:59;96112.97;;;6.55;74.18
24160;BME280;62385;41.594;23.808;2024-02-28T06:45:25;96115.09;;;6.61;73.32
24160;BME280;62385;41.594;23.808;2024-02-28T06:47:51;96120.78;;;6.87;73.51
24160;BME280;62385;41.594;23.808;2024-02-28T06:50:16;96117.97;;;6.79;74.50
24160;BME280;62385;41.594;23.808;2024-02-28T06:52:42;96124.38;;;7.16;73.30
24160;BME280;62385;41.594;23.808;2024-02-28T06:55:08;96105.28;;;7.13;73.73
24160;BME280;62385;41.594;23.808;2024-02-28T06:57:41;96127.75;;;7.28;73.35
24160;BME280;62385;41.594;23.808;2024-02-28T07:00:09;96115.50;;;7.27;73.29
24160;BME280;62385;41.594;23.808;2024-02-28T07:02:35;96124.28;;;7.37;72.73
24160;BME280;62385;41.594;23.808;2024-02-28T07:05:02;96117.44;;;7.34;72.87
24160;BME280;62385;41.594;23.808;2024-02-28T07:07:32;96128.19;;;7.42;72.58
24160;BME280;62385;41.594;23.808;2024-02-28T07:09:58;96108.69;;;7.24;72.92
24160;BME280;62385;41.594;23.808;2024-02-28T07:12:24;96113.00;;;7.35;73.11
24160;BME280;62385;41.594;23.808;2024-02-28T07:14:52;96127.81;;;7.17;72.57
24160;BME280;62385;41.594;23.808;2024-02-28T07:17:18;96130.25;;;7.39;72.33
24160;BME280;62385;41.594;23.808;2024-02-28T07:19:43;96140.41;;;7.43;72.39
24160;BME280;62385;41.594;23.808;2024-02-28T07:22:09;96132.94;;;7.68;71.67
24160;BME280;62385;41.594;23.808;2024-02-28T07:24:34;96138.31;;;7.37;72.11
24160;BME280;62385;41.594;23.808;2024-02-28T07:27:00;96139.09;;;6.79;73.97
24160;BME280;62385;41.594;23.808;2024-02-28T07:29:25;96135.47;;;7.69;71.33
24160;BME280;62385;41.594;23.808;2024-02-28T07:31:51;96137.63;;;7.35;72.17
24160;BME280;62385;41.594;23.808;2024-02-28T07:34:16;96131.50;;;7.35;72.71
24160;BME280;62385;41.594;23.808;2024-02-28T07:36:42;96120.56;;;7.68;71.66
24160;BME280;62385;41.594;23.808;2024-02-28T07:39:07;96116.97;;;8.17;70.25
24160;BME280;62385;41.594;23.808;2024-02-28T07:41:38;96125.97;;;8.53;70.89
24160;BME280;62385;41.594;23.808;2024-02-28T07:44:04;96120.00;;;8.51;70.53
24160;BME280;62385;41.594;23.808;2024-02-28T07:46:30;96117.78;;;8.37;70.40
24160;BME280;62385;41.594;23.808;2024-02-28T07:48:56;96113.03;;;8.60;70.16
24160;BME280;62385;41.594;23.808;2024-02-28T07:51:21;96109.53;;;9.06;69.47
24160;BME280;62385;41.594;23.808;2024-02-28T07:53:47;96092.16;;;8.94;69.00
24160;BME280;62385;41.594;23.808;2024-02-28T07:56:16;96105.59;;;9.10;68.79
24160;BME280;62385;41.594;23.808;2024-02-28T07:58:43;96102.91;;;8.82;70.44
24160;BME280;62385;41.594;23.808;2024-02-28T08:01:08;96115.25;;;8.55;70.14
24160;BME280;62385;41.594;23.808;2024-02-28T08:03:34;96126.09;;;8.61;70.63
24160;BME280;62385;41.594;23.808;2024-02-28T08:06:00;96126.44;;;8.49;71.13
24160;BME280;62385;41.594;23.808;2024-02-28T08:08:25;96118.19;;;8.52;71.01
24160;BME280;62385;41.594;23.808;2024-02-28T08:10:51;96121.22;;;9.03;68.84
24160;BME280;62385;41.594;23.808;2024-02-28T08:13:19;96107.31;;;8.64;70.11
24160;BME280;62385;41.594;23.808;2024-02-28T08:15:44;96131.78;;;8.76;70.15
24160;BME280;62385;41.594;23.808;2024-02-28T08:18:09;96113.47;;;8.92;69.51
24160;BME280;62385;41.594;23.808;2024-02-28T08:20:38;96126.16;;;9.25;68.24
24160;BME280;62385;41.594;23.808;2024-02-28T08:23:04;96113.88;;;9.24;67.92
24160;BME280;62385;41.594;23.808;2024-02-28T08:25:30;96124.38;;;8.89;68.62
24160;BME280;62385;41.594;23.808;2024-02-28T08:27:56;96129.75;;;8.41;70.11
24160;BME280;62385;41.594;23.808;2024-02-28T08:30:22;96131.91;;;8.74;69.72
24160;BME280;62385;41.594;23.808;2024-02-28T08:32:48;96125.84;;;9.01;69.59
24160;BME280;62385;41.594;23.808;2024-02-28T08:35:13;96113.69;;;9.08;69.19
24160;BME280;62385;41.594;23.808;2024-02-28T08:37:39;96112.59;;;9.01;68.02
24160;BME280;62385;41.594;23.808;2024-02-28T08:40:07;96108.00;;;9.76;67.61
24160;BME280;62385;41.594;23.808;2024-02-28T08:42:32;96098.97;;;9.51;67.19
24160;BME280;62385;41.594;23.808;2024-02-28T08:44:59;96108.84;;;9.94;66.40
24160;BME280;62385;41.594;23.808;2024-02-28T08:47:25;96112.13;;;9.43;67.28
24160;BME280;62385;41.594;23.808;2024-02-28T08:49:52;96097.06;;;9.43;66.53
24160;BME280;62385;41.594;23.808;2024-02-28T08:52:17;96095.66;;;10.02;66.09
24160;BME280;62385;41.594;23.808;2024-02-28T08:54:43;96112.25;;;10.04;64.99
24160;BME280;62385;41.594;23.808;2024-02-28T08:57:08;96111.03;;;10.34;63.06
24160;BME280;62385;41.594;23.808;2024-02-28T08:59:34;96115.25;;;10.44;63.29
24160;BME280;62385;41.594;23.808;2024-02-28T09:01:59;96106.44;;;10.87;62.66
24160;BME280;62385;41.594;23.808;2024-02-28T09:11:30;96113.19;;;10.82;62.03
24160;BME280;62385;41.594;23.808;2024-02-28T09:13:56;96102.78;;;10.62;61.43
24160;BME280;62385;41.594;23.808;2024-02-28T09:16:22;96115.19;;;10.54;60.18
24160;BME280;62385;41.594;23.808;2024-02-28T09:18:47;96108.91;;;10.81;60.26
24160;BME280;62385;41.594;23.808;2024-02-28T09:21:13;96108.84;;;11.40;59.74
24160;BME280;62385;41.594;23.808;2024-02-28T09:23:38;96101.53;;;11.34;57.76
24160;BME280;62385;41.594;23.808;2024-02-28T09:26:04;96098.66;;;11.28;58.70
24160;BME280;62385;41.594;23.808;2024-02-28T09:28:30;96100.28;;;11.21;58.77
24160;BME280;62385;41.594;23.808;2024-02-28T09:30:56;96087.72;;;11.39;58.31
24160;BME280;62385;41.594;23.808;2024-02-28T09:33:22;96102.44;;;11.59;57.56
24160;BME280;62385;41.594;23.808;2024-02-28T09:35:48;96105.75;;;11.61;57.33
24160;BME280;62385;41.594;23.808;2024-02-28T09:38:13;96107.59;;;11.69;57.79
24160;BME280;62385;41.594;23.808;2024-02-28T09:40:39;96095.63;;;11.65;57.70
24160;BME280;62385;41.594;23.808;2024-02-28T09:43:05;96090.81;;;11.68;57.42
24160;BME280;62385;41.594;23.808;2024-02-28T09:45:34;96109.69;;;11.91;57.80
24160;BME280;62385;41.594;23.808;2024-02-28T09:48:00;96105.28;;;11.24;58.34
24160;BME280;62385;41.594;23.808;2024-02-28T09:50:26;96101.44;;;11.68;56.67
24160;BME280;62385;41.594;23.808;2024-02-28T09:52:53;96097.88;;;12.01;55.93
24160;BME280;62385;41.594;23.808;2024-02-28T09:55:19;96083.78;;;12.09;56.44
24160;BME280;62385;41.594;23.808;2024-02-28T09:57:47;96078.56;;;11.83;56.43
24160;BME280;62385;41.594;23.808;2024-02-28T10:00:14;96081.28;;;12.24;55.08
24160;BME280;62385;41.594;23.808;2024-02-28T10:02:42;96075.28;;;12.54;54.49
24160;BME280;62385;41.594;23.808;2024-02-28T10:05:10;96064.72;;;12.85;54.21
24160;BME280;62385;41.594;23.808;2024-02-28T10:07:36;96057.50;;;13.02;53.20
24160;BME280;62385;41.594;23.808;2024-02-28T10:10:01;96059.03;;;13.43;53.07
24160;BME280;62385;41.594;23.808;2024-02-28T10:12:27;96036.22;;;13.40;52.61
24160;BME280;62385;41.594;23.808;2024-02-28T10:14:53;96050.63;;;13.54;52.90
24160;BME280;62385;41.594;23.808;2024-02-28T10:17:18;96044.13;;;13.57;53.16
24160;BME280;62385;41.594;23.808;2024-02-28T10:19:44;96045.44;;;13.83;52.45
24160;BME280;62385;41.594;23.808;2024-02-28T10:22:09;96043.50;;;13.77;51.90
24160;BME280;62385;41.594;23.808;2024-02-28T10:24:35;96007.41;;;13.59;53.16
24160;BME280;62385;41.594;23.808;2024-02-28T10:27:03;96026.63;;;14.00;52.21
24160;BME280;62385;41.594;23.808;2024-02-28T10:29:29;96023.81;;;13.78;52.10
24160;BME280;62385;41.594;23.808;2024-02-28T10:31:58;96024.47;;;14.03;51.68
24160;BME280;62385;41.594;23.808;2024-02-28T10:34:25;96016.75;;;13.85;52.20
24160;BME280;62385;41.594;23.808;2024-02-28T10:36:51;96001.03;;;13.91;52.00
24160;BME280;62385;41.594;23.808;2024-02-28T10:39:17;95996.94;;;14.03;51.99
24160;BME280;62385;41.594;23.808;2024-02-28T10:41:44;96005.94;;;14.02;51.06
24160;BME280;62385;41.594;23.808;2024-02-28T10:44:12;96011.78;;;14.43;49.84
24160;BME280;62385;41.594;23.808;2024-02-28T10:46:38;95999.34;;;14.50;49.79
24160;BME280;62385;41.594;23.808;2024-02-28T10:49:05;96004.31;;;14.38;51.81
24160;BME280;62385;41.594;23.808;2024-02-28T10:51:34;95995.03;;;13.88;52.08
24160;BME280;62385;41.594;23.808;2024-02-28T10:54:11;96000.97;;;13.99;50.94
24160;BME280;62385;41.594;23.808;2024-02-28T10:56:38;95982.81;;;14.31;52.31
24160;BME280;62385;41.594;23.808;2024-02-28T10:59:06;95993.00;;;14.13;50.96
24160;BME280;62385;41.594;23.808;2024-02-28T11:01:35;95992.59;;;14.02;52.38
24160;BME280;62385;41.594;23.808;2024-02-28T11:04:02;95958.72;;;13.34;53.44
24160;BME280;62385;41.594;23.808;2024-02-28T11:06:28;95964.56;;;14.20;52.89
24160;BME280;62385;41.594;23.808;2024-02-28T11:08:55;95972.25;;;14.01;53.24
24160;BME280;62385;41.594;23.808;2024-02-28T11:11:22;95964.00;;;14.48;52.77
24160;BME280;62385;41.594;23.808;2024-02-28T11:13:57;95953.94;;;14.35;52.88
24160;BME280;62385;41.594;23.808;2024-02-28T11:16:33;95955.97;;;14.10;53.89
24160;BME280;62385;41.594;23.808;2024-02-28T11:19:00;95937.94;;;14.12;53.39
24160;BME280;62385;41.594;23.808;2024-02-28T11:21:27;95935.06;;;14.37;53.61
24160;BME280;62385;41.594;23.808;2024-02-28T11:23:57;95930.97;;;14.99;52.63
24160;BME280;62385;41.594;23.808;2024-02-28T11:26:24;95924.28;;;15.24;52.16
24160;BME280;62385;41.594;23.808;2024-02-28T11:28:49;95921.13;;;15.36;52.41
24160;BME280;62385;41.594;23.808;2024-02-28T11:31:15;95916.34;;;14.81;53.68
24160;BME280;62385;41.594;23.808;2024-02-28T11:33:41;95926.22;;;14.80;52.90
24160;BME280;62385;41.594;23.808;2024-02-28T11:36:07;95923.09;;;15.12;52.84
24160;BME280;62385;41.594;23.808;2024-02-28T11:38:36;95909.00;;;14.39;52.74
24160;BME280;62385;41.594;23.808;2024-02-28T11:41:03;95892.69;;;14.48;52.62
24160;BME280;62385;41.594;23.808;2024-02-28T11:43:33;95906.31;;;14.68;53.04
24160;BME280;62385;41.594;23.808;2024-02-28T11:46:08;95912.38;;;15.27;52.53
24160;BME280;62385;41.594;23.808;2024-02-28T11:48:34;95902.09;;;14.73;52.36
24160;BME280;62385;41.594;23.808;2024-02-28T11:51:00;95903.66;;;15.04;52.39
24160;BME280;62385;41.594;23.808;2024-02-28T11:53:26;95888.41;;;15.55;51.48
24160;BME280;62385;41.594;23.808;2024-02-28T11:55:54;95880.53;;;15.11;50.99
24160;BME280;62385;41.594;23.808;2024-02-28T11:58:21;95877.03;;;15.74;51.58
24160;BME280;62385;41.594;23.808;2024-02-28T12:00:48;95874.50;;;15.66;52.17
24160;BME280;62385;41.594;23.808;2024-02-28T12:03:13;95881.47;;;15.60;51.49
24160;BME280;62385;41.594;23.808;2024-02-28T12:05:42;95867.06;;;16.10;51.39
24160;BME280;62385;41.594;23.808;2024-02-28T12:08:08;95873.47;;;15.88;49.84
24160;BME280;62385;41.594;23.808;2024-02-28T12:10:35;95867.94;;;15.90;50.06
24160;BME280;62385;41.594;23.808;2024-02-28T12:13:01;95868.84;;;16.31;50.46
24160;BME280;62385;41.594;23.808;2024-02-28T12:15:29;95848.94;;;16.47;50.24
24160;BME280;62385;41.594;23.808;2024-02-28T12:17:54;95848.69;;;16.42;49.24
24160;BME280;62385;41.594;23.808;2024-02-28T12:20:20;95845.38;;;15.78;49.22
24160;BME280;62385;41.594;23.808;2024-02-28T12:22:45;95850.91;;;15.76;49.83
24160;BME280;62385;41.594;23.808;2024-02-28T12:25:11;95853.03;;;16.15;50.52
24160;BME280;62385;41.594;23.808;2024-02-28T12:27:37;95854.88;;;16.42;49.74
24160;BME280;62385;41.594;23.808;2024-02-28T12:30:02;95850.97;;;16.45;48.12
24160;BME280;62385;41.594;23.808;2024-02-28T12:32:28;95845.88;;;16.56;49.77
24160;BME280;62385;41.594;23.808;2024-02-28T12:34:53;95853.09;;;16.56;49.79
24160;BME280;62385;41.594;23.808;2024-02-28T12:37:19;95841.31;;;16.85;49.25
24160;BME280;62385;41.594;23.808;2024-02-28T12:39:44;95855.13;;;16.20;50.68
24160;BME280;62385;41.594;23.808;2024-02-28T12:42:12;95855.81;;;15.94;49.89
24160;BME280;62385;41.594;23.808;2024-02-28T12:44:38;95844.69;;;15.97;50.48
24160;BME280;62385;41.594;23.808;2024-02-28T12:47:06;95836.16;;;15.87;50.24
24160;BME280;62385;41.594;23.808;2024-02-28T12:49:32;95850.25;;;15.95;51.50
24160;BME280;62385;41.594;23.808;2024-02-28T12:51:57;95850.47;;;16.00;51.15
24160;BME280;62385;41.594;23.808;2024-02-28T12:54:22;95845.25;;;15.86;50.70
24160;BME280;62385;41.594;23.808;2024-02-28T12:56:48;95841.91;;;15.84;50.20
24160;BME280;62385;41.594;23.808;2024-02-28T12:59:14;95839.13;;;15.49;49.72